sensor_id;sensor_type;location;lat;lon;timestamp;temperature;humidity
30148;DHT22;16960;49.404;8.248;2023-02-18T00:00:56;19.80;40.80
30148;DHT22;16960;49.404;8.248;2023-02-18T00:03:24;19.80;41.00
30148;DHT22;16960;49.404;8.248;2023-02-18T00:05:53;19.70;41.50
30148;DHT22;16960;49.404;8.248;2023-02-18T00:08:20;19.70;40.90
30148;DHT22;16960;49.404;8.248;2023-02-18T00:10:48;19.70;40.90
30148;DHT22;16960;49.404;8.248;2023-02-18T00:13:15;19.70;40.90
30148;DHT22;16960;49.404;8.248;2023-02-18T00:15:41;19.70;40.80
30148;DHT22;16960;49.404;8.248;2023-02-18T00:18:08;19.70;40.80
30148;DHT22;16960;49.404;8.248;2023-02-18T00:20:38;19.70;40.90
30148;DHT22;16960;49.404;8.248;2023-02-18T00:23:06;19.70;40.90
30148;DHT22;16960;49.404;8.248;2023-02-18T00:25:33;19.70;40.80
30148;DHT22;16960;49.404;8.248;2023-02-18T00:28:00;19.70;40.90
30148;DHT22;16960;49.404;8.248;2023-02-18T00:30:27;19.60;41.00
30148;DHT22;16960;49.404;8.248;2023-02-18T00:32:54;19.60;40.90
30148;DHT22;16960;49.404;8.248;2023-02-18T00:35:21;19.60;40.90
30148;DHT22;16960;49.404;8.248;2023-02-18T00:37:50;19.60;41.10
30148;DHT22;16960;49.404;8.248;2023-02-18T00:40:18;19.60;41.00
30148;DHT22;16960;49.404;8.248;2023-02-18T00:42:45;19.60;40.90
30148;DHT22;16960;49.404;8.248;2023-02-18T00:45:12;19.60;41.00
30148;DHT22;16960;49.404;8.248;2023-02-18T00:47:39;19.60;41.10
30148;DHT22;16960;49.404;8.248;2023-02-18T00:50:07;19.60;41.00
30148;DHT22;16960;49.404;8.248;2023-02-18T00:52:34;19.60;41.10
30148;DHT22;16960;49.404;8.248;2023-02-18T00:55:01;19.60;41.10
30148;DHT22;16960;49.404;8.248;2023-02-18T00:57:29;19.50;41.10
30148;DHT22;16960;49.404;8.248;2023-02-18T00:59:56;19.60;41.20
30148;DHT22;16960;49.404;8.248;2023-02-18T01:02:23;19.60;41.20
30148;DHT22;16960;49.404;8.248;2023-02-18T01:04:50;19.60;41.20
30148;DHT22;16960;49.404;8.248;2023-02-18T01:07:17;19.50;41.20
30148;DHT22;16960;49.404;8.248;2023-02-18T01:09:44;19.60;41.20
30148;DHT22;16960;49.404;8.248;2023-02-18T01:12:11;19.50;41.20
30148;DHT22;16960;49.404;8.248;2023-02-18T01:14:39;19.50;41.20
30148;DHT22;16960;49.404;8.248;2023-02-18T01:17:06;19.50;41.20
30148;DHT22;16960;49.404;8.248;2023-02-18T01:19:33;19.50;41.20
30148;DHT22;16960;49.404;8.248;2023-02-18T01:22:00;19.50;41.10
30148;DHT22;16960;49.404;8.248;2023-02-18T01:24:27;19.50;41.80
30148;DHT22;16960;49.404;8.248;2023-02-18T01:26:54;19.50;41.20
30148;DHT22;16960;49.404;8.248;2023-02-18T01:29:21;19.50;41.20
30148;DHT22;16960;49.404;8.248;2023-02-18T01:31:49;19.50;41.30
30148;DHT22;16960;49.404;8.248;2023-02-18T01:34:16;19.50;41.20
30148;DHT22;16960;49.404;8.248;2023-02-18T01:36:43;19.50;41.30
30148;DHT22;16960;49.404;8.248;2023-02-18T01:39:10;19.50;41.30
30148;DHT22;16960;49.404;8.248;2023-02-18T01:41:37;19.40;41.20
30148;DHT22;16960;49.404;8.248;2023-02-18T01:44:16;19.40;41.30
30148;DHT22;16960;49.404;8.248;2023-02-18T01:46:43;19.40;41.20
30148;DHT22;16960;49.404;8.248;2023-02-18T01:49:14;19.50;41.30
30148;DHT22;16960;49.404;8.248;2023-02-18T01:51:45;19.40;41.20
30148;DHT22;16960;49.404;8.248;2023-02-18T01:54:15;19.40;41.10
30148;DHT22;16960;49.404;8.248;2023-02-18T01:56:48;19.40;41.20
30148;DHT22;16960;49.404;8.248;2023-02-18T01:59:18;19.40;41.20
30148;DHT22;16960;49.404;8.248;2023-02-18T02:01:47;19.40;41.30
30148;DHT22;16960;49.404;8.248;2023-02-18T02:04:15;19.40;41.30
30148;DHT22;16960;49.404;8.248;2023-02-18T02:06:43;19.40;41.30
30148;DHT22;16960;49.404;8.248;2023-02-18T02:09:12;19.40;41.20
30148;DHT22;16960;49.404;8.248;2023-02-18T02:11:50;19.40;41.20
30148;DHT22;16960;49.404;8.248;2023-02-18T02:14:34;19.40;41.40
30148;DHT22;16960;49.404;8.248;2023-02-18T02:17:12;19.40;41.40
30148;DHT22;16960;49.404;8.248;2023-02-18T02:20:12;19.40;41.50
30148;DHT22;16960;49.404;8.248;2023-02-18T02:23:13;19.40;41.50
30148;DHT22;16960;49.404;8.248;2023-02-18T02:26:13;19.30;41.30
30148;DHT22;16960;49.404;8.248;2023-02-18T02:32:04;19.30;41.30
30148;DHT22;16960;49.404;8.248;2023-02-18T02:34:48;19.30;41.30
30148;DHT22;16960;49.404;8.248;2023-02-18T02:37:22;19.30;41.30
30148;DHT22;16960;49.404;8.248;2023-02-18T02:40:00;19.30;41.30
30148;DHT22;16960;49.404;8.248;2023-02-18T02:42:39;19.30;41.50
30148;DHT22;16960;49.404;8.248;2023-02-18T02:45:12;19.30;41.40
30148;DHT22;16960;49.404;8.248;2023-02-18T02:47:47;19.30;41.50
30148;DHT22;16960;49.404;8.248;2023-02-18T02:50:20;19.30;41.50
30148;DHT22;16960;49.404;8.248;2023-02-18T02:52:53;19.30;41.60
30148;DHT22;16960;49.404;8.248;2023-02-18T02:55:22;19.30;41.60
30148;DHT22;16960;49.404;8.248;2023-02-18T02:57:50;19.30;41.60
30148;DHT22;16960;49.404;8.248;2023-02-18T03:00:20;19.30;41.60
30148;DHT22;16960;49.404;8.248;2023-02-18T03:03:05;19.20;41.50
30148;DHT22;16960;49.404;8.248;2023-02-18T03:05:47;19.20;41.60
30148;DHT22;16960;49.404;8.248;2023-02-18T03:08:34;19.30;41.60
30148;DHT22;16960;49.404;8.248;2023-02-18T03:11:05;19.20;41.50
30148;DHT22;16960;49.404;8.248;2023-02-18T03:13:45;19.20;41.50
30148;DHT22;16960;49.404;8.248;2023-02-18T03:16:24;19.20;41.50
30148;DHT22;16960;49.404;8.248;2023-02-18T03:18:58;19.20;41.50
30148;DHT22;16960;49.404;8.248;2023-02-18T03:21:31;19.20;41.60
30148;DHT22;16960;49.404;8.248;2023-02-18T03:24:02;19.20;41.50
30148;DHT22;16960;49.404;8.248;2023-02-18T03:26:33;19.20;41.60
30148;DHT22;16960;49.404;8.248;2023-02-18T03:29:04;19.20;41.60
30148;DHT22;16960;49.404;8.248;2023-02-18T03:31:34;19.20;41.60
30148;DHT22;16960;49.404;8.248;2023-02-18T03:34:07;19.20;41.60
30148;DHT22;16960;49.404;8.248;2023-02-18T03:36:37;19.20;41.60
30148;DHT22;16960;49.404;8.248;2023-02-18T03:39:06;19.20;41.70
30148;DHT22;16960;49.404;8.248;2023-02-18T03:41:34;19.20;41.60
30148;DHT22;16960;49.404;8.248;2023-02-18T03:44:08;19.20;41.80
30148;DHT22;16960;49.404;8.248;2023-02-18T03:46:36;19.20;41.80
30148;DHT22;16960;49.404;8.248;2023-02-18T03:49:03;19.10;41.90
30148;DHT22;16960;49.404;8.248;2023-02-18T03:51:31;19.10;41.90
30148;DHT22;16960;49.404;8.248;2023-02-18T03:53:59;19.10;41.90
30148;DHT22;16960;49.404;8.248;2023-02-18T03:56:26;19.10;42.00
30148;DHT22;16960;49.404;8.248;2023-02-18T03:58:53;19.10;41.90
30148;DHT22;16960;49.404;8.248;2023-02-18T04:01:20;19.10;41.90
30148;DHT22;16960;49.404;8.248;2023-02-18T04:03:47;19.10;41.90
30148;DHT22;16960;49.404;8.248;2023-02-18T04:06:14;19.10;42.00
30148;DHT22;16960;49.404;8.248;2023-02-18T04:08:41;19.10;41.90
30148;DHT22;16960;49.404;8.248;2023-02-18T04:11:09;19.10;41.90
30148;DHT22;16960;49.404;8.248;2023-02-18T04:13:36;19.10;41.90
30148;DHT22;16960;49.404;8.248;2023-02-18T04:16:04;19.10;41.90
30148;DHT22;16960;49.404;8.248;2023-02-18T04:18:31;19.10;41.90
30148;DHT22;16960;49.404;8.248;2023-02-18T04:20:58;19.10;41.90
30148;DHT22;16960;49.404;8.248;2023-02-18T04:23:25;19.10;41.90
30148;DHT22;16960;49.404;8.248;2023-02-18T04:25:52;19.10;41.90
30148;DHT22;16960;49.404;8.248;2023-02-18T04:28:20;19.10;41.90
30148;DHT22;16960;49.404;8.248;2023-02-18T04:30:47;19.00;41.70
30148;DHT22;16960;49.404;8.248;2023-02-18T04:33:14;19.10;42.40
30148;DHT22;16960;49.404;8.248;2023-02-18T04:35:41;19.00;41.60
30148;DHT22;16960;49.404;8.248;2023-02-18T04:38:09;19.10;41.60
30148;DHT22;16960;49.404;8.248;2023-02-18T04:40:37;19.00;41.60
30148;DHT22;16960;49.404;8.248;2023-02-18T04:43:04;19.10;41.70
30148;DHT22;16960;49.404;8.248;2023-02-18T04:45:32;19.00;41.60
30148;DHT22;16960;49.404;8.248;2023-02-18T04:47:59;19.00;41.50
30148;DHT22;16960;49.404;8.248;2023-02-18T04:50:26;19.00;41.60
30148;DHT22;16960;49.404;8.248;2023-02-18T04:52:53;19.00;41.60
30148;DHT22;16960;49.404;8.248;2023-02-18T04:55:20;19.00;41.60
30148;DHT22;16960;49.404;8.248;2023-02-18T04:57:47;19.00;41.70
30148;DHT22;16960;49.404;8.248;2023-02-18T05:00:15;19.00;41.60
30148;DHT22;16960;49.404;8.248;2023-02-18T05:02:44;19.00;41.40
30148;DHT22;16960;49.404;8.248;2023-02-18T05:05:12;19.00;41.50
30148;DHT22;16960;49.404;8.248;2023-02-18T05:07:39;19.00;41.60
30148;DHT22;16960;49.404;8.248;2023-02-18T05:10:08;19.00;41.70
30148;DHT22;16960;49.404;8.248;2023-02-18T05:12:35;19.00;41.50
30148;DHT22;16960;49.404;8.248;2023-02-18T05:15:02;19.00;41.60
30148;DHT22;16960;49.404;8.248;2023-02-18T05:17:29;19.00;41.60
30148;DHT22;16960;49.404;8.248;2023-02-18T05:19:57;19.00;41.60
30148;DHT22;16960;49.404;8.248;2023-02-18T05:22:24;19.00;41.60
30148;DHT22;16960;49.404;8.248;2023-02-18T05:24:51;19.00;41.50
30148;DHT22;16960;49.404;8.248;2023-02-18T05:27:18;19.00;41.50
30148;DHT22;16960;49.404;8.248;2023-02-18T05:29:45;19.00;41.60
30148;DHT22;16960;49.404;8.248;2023-02-18T05:32:12;19.00;41.60
30148;DHT22;16960;49.404;8.248;2023-02-18T05:34:39;19.00;41.60
30148;DHT22;16960;49.404;8.248;2023-02-18T05:37:07;19.00;41.50
30148;DHT22;16960;49.404;8.248;2023-02-18T05:39:34;19.00;41.40
30148;DHT22;16960;49.404;8.248;2023-02-18T05:42:01;19.00;41.20
30148;DHT22;16960;49.404;8.248;2023-02-18T05:44:28;19.00;41.10
30148;DHT22;16960;49.404;8.248;2023-02-18T05:46:57;19.10;41.20
30148;DHT22;16960;49.404;8.248;2023-02-18T05:49:25;19.10;41.10
30148;DHT22;16960;49.404;8.248;2023-02-18T05:51:52;19.20;41.00
30148;DHT22;16960;49.404;8.248;2023-02-18T05:54:21;19.20;41.00
30148;DHT22;16960;49.404;8.248;2023-02-18T05:56:48;19.20;40.90
30148;DHT22;16960;49.404;8.248;2023-02-18T05:59:15;19.20;40.90
30148;DHT22;16960;49.404;8.248;2023-02-18T06:01:42;19.30;40.90
30148;DHT22;16960;49.404;8.248;2023-02-18T06:04:09;19.30;40.90
30148;DHT22;16960;49.404;8.248;2023-02-18T06:06:36;19.30;40.80
30148;DHT22;16960;49.404;8.248;2023-02-18T06:09:03;19.40;40.70
30148;DHT22;16960;49.404;8.248;2023-02-18T06:11:32;19.40;40.70
30148;DHT22;16960;49.404;8.248;2023-02-18T06:14:00;19.40;40.70
30148;DHT22;16960;49.404;8.248;2023-02-18T06:16:27;19.50;40.70
30148;DHT22;16960;49.404;8.248;2023-02-18T06:18:54;19.50;40.70
30148;DHT22;16960;49.404;8.248;2023-02-18T06:21:21;19.50;40.80
30148;DHT22;16960;49.404;8.248;2023-02-18T06:23:48;19.50;40.60
30148;DHT22;16960;49.404;8.248;2023-02-18T06:26:16;19.50;40.60
30148;DHT22;16960;49.404;8.248;2023-02-18T06:28:45;19.60;40.60
30148;DHT22;16960;49.404;8.248;2023-02-18T06:31:11;19.60;40.50
30148;DHT22;16960;49.404;8.248;2023-02-18T06:33:38;19.60;40.40
30148;DHT22;16960;49.404;8.248;2023-02-18T06:36:07;19.60;40.40
30148;DHT22;16960;49.404;8.248;2023-02-18T06:38:36;19.70;40.40
30148;DHT22;16960;49.404;8.248;2023-02-18T06:41:04;19.70;40.50
30148;DHT22;16960;49.404;8.248;2023-02-18T06:43:31;19.70;40.50
30148;DHT22;16960;49.404;8.248;2023-02-18T06:45:59;19.70;40.40
30148;DHT22;16960;49.404;8.248;2023-02-18T06:48:26;19.70;40.40
30148;DHT22;16960;49.404;8.248;2023-02-18T06:50:53;19.80;40.40
30148;DHT22;16960;49.404;8.248;2023-02-18T06:53:20;19.70;40.30
30148;DHT22;16960;49.404;8.248;2023-02-18T06:55:47;19.80;40.30
30148;DHT22;16960;49.404;8.248;2023-02-18T06:58:14;19.80;40.30
30148;DHT22;16960;49.404;8.248;2023-02-18T07:00:42;19.80;40.30
30148;DHT22;16960;49.404;8.248;2023-02-18T07:03:12;19.80;40.20
30148;DHT22;16960;49.404;8.248;2023-02-18T07:05:39;19.80;40.20
30148;DHT22;16960;49.404;8.248;2023-02-18T07:08:06;19.90;40.30
30148;DHT22;16960;49.404;8.248;2023-02-18T07:10:33;19.90;40.40
30148;DHT22;16960;49.404;8.248;2023-02-18T07:13:00;19.90;40.40
30148;DHT22;16960;49.404;8.248;2023-02-18T07:15:27;20.00;40.30
30148;DHT22;16960;49.404;8.248;2023-02-18T07:17:54;20.00;40.20
30148;DHT22;16960;49.404;8.248;2023-02-18T07:20:24;19.90;40.10
30148;DHT22;16960;49.404;8.248;2023-02-18T07:22:51;19.90;40.10
30148;DHT22;16960;49.404;8.248;2023-02-18T07:25:18;20.00;40.10
30148;DHT22;16960;49.404;8.248;2023-02-18T07:27:45;20.00;40.10
30148;DHT22;16960;49.404;8.248;2023-02-18T07:30:12;20.00;40.10
30148;DHT22;16960;49.404;8.248;2023-02-18T07:32:39;20.00;40.10
30148;DHT22;16960;49.404;8.248;2023-02-18T07:35:07;20.00;40.10
30148;DHT22;16960;49.404;8.248;2023-02-18T07:37:35;20.00;40.10
30148;DHT22;16960;49.404;8.248;2023-02-18T07:40:02;20.10;40.20
30148;DHT22;16960;49.404;8.248;2023-02-18T07:42:29;20.00;40.00
30148;DHT22;16960;49.404;8.248;2023-02-18T07:44:56;20.10;40.10
30148;DHT22;16960;49.404;8.248;2023-02-18T07:47:23;20.10;40.10
30148;DHT22;16960;49.404;8.248;2023-02-18T07:49:50;20.10;40.20
30148;DHT22;16960;49.404;8.248;2023-02-18T07:52:17;20.10;40.10
30148;DHT22;16960;49.404;8.248;2023-02-18T07:54:45;20.10;40.10
30148;DHT22;16960;49.404;8.248;2023-02-18T07:57:12;20.10;40.20
30148;DHT22;16960;49.404;8.248;2023-02-18T07:59:39;20.10;40.10
30148;DHT22;16960;49.404;8.248;2023-02-18T08:02:07;20.10;40.10
30148;DHT22;16960;49.404;8.248;2023-02-18T08:04:36;20.20;40.80
30148;DHT22;16960;49.404;8.248;2023-02-18T08:07:03;20.20;40.10
30148;DHT22;16960;49.404;8.248;2023-02-18T08:09:30;20.20;40.20
30148;DHT22;16960;49.404;8.248;2023-02-18T08:11:59;20.20;40.30
30148;DHT22;16960;49.404;8.248;2023-02-18T08:14:25;20.30;40.30
30148;DHT22;16960;49.404;8.248;2023-02-18T08:16:52;20.30;40.20
30148;DHT22;16960;49.404;8.248;2023-02-18T08:19:19;20.30;40.20
30148;DHT22;16960;49.404;8.248;2023-02-18T08:21:46;20.30;40.20
30148;DHT22;16960;49.404;8.248;2023-02-18T08:24:13;20.30;40.10
30148;DHT22;16960;49.404;8.248;2023-02-18T08:26:40;20.30;40.10
30148;DHT22;16960;49.404;8.248;2023-02-18T08:29:08;20.40;40.00
30148;DHT22;16960;49.404;8.248;2023-02-18T08:31:35;20.40;40.10
30148;DHT22;16960;49.404;8.248;2023-02-18T08:34:02;20.40;40.00
30148;DHT22;16960;49.404;8.248;2023-02-18T08:36:29;20.40;40.00
30148;DHT22;16960;49.404;8.248;2023-02-18T08:38:57;20.40;39.90
30148;DHT22;16960;49.404;8.248;2023-02-18T08:41:23;20.40;39.90
30148;DHT22;16960;49.404;8.248;2023-02-18T08:43:50;20.40;39.80
30148;DHT22;16960;49.404;8.248;2023-02-18T08:46:19;20.40;39.80
30148;DHT22;16960;49.404;8.248;2023-02-18T08:48:45;20.40;39.80
30148;DHT22;16960;49.404;8.248;2023-02-18T08:51:15;20.50;39.80
30148;DHT22;16960;49.404;8.248;2023-02-18T08:53:42;20.40;39.70
30148;DHT22;16960;49.404;8.248;2023-02-18T08:56:10;20.50;39.80
30148;DHT22;16960;49.404;8.248;2023-02-18T08:58:38;20.50;39.90
30148;DHT22;16960;49.404;8.248;2023-02-18T09:01:06;20.50;39.80
30148;DHT22;16960;49.404;8.248;2023-02-18T09:03:35;20.50;39.80
30148;DHT22;16960;49.404;8.248;2023-02-18T09:06:02;20.50;39.80
30148;DHT22;16960;49.404;8.248;2023-02-18T09:08:30;20.50;39.80
30148;DHT22;16960;49.404;8.248;2023-02-18T09:10:58;20.50;39.80
30148;DHT22;16960;49.404;8.248;2023-02-18T09:13:26;20.50;39.80
30148;DHT22;16960;49.404;8.248;2023-02-18T09:15:58;20.50;39.90
30148;DHT22;16960;49.404;8.248;2023-02-18T09:18:26;20.50;39.90
30148;DHT22;16960;49.404;8.248;2023-02-18T09:20:56;20.50;39.80
30148;DHT22;16960;49.404;8.248;2023-02-18T09:23:24;20.50;39.90
30148;DHT22;16960;49.404;8.248;2023-02-18T09:25:52;20.50;39.90
30148;DHT22;16960;49.404;8.248;2023-02-18T09:28:19;20.50;40.00
30148;DHT22;16960;49.404;8.248;2023-02-18T09:30:46;20.50;39.90
30148;DHT22;16960;49.404;8.248;2023-02-18T09:33:14;20.50;39.90
30148;DHT22;16960;49.404;8.248;2023-02-18T09:35:42;20.60;40.00
30148;DHT22;16960;49.404;8.248;2023-02-18T09:38:13;20.60;39.90
30148;DHT22;16960;49.404;8.248;2023-02-18T09:40:43;20.60;39.90
30148;DHT22;16960;49.404;8.248;2023-02-18T09:43:18;20.50;39.90
30148;DHT22;16960;49.404;8.248;2023-02-18T09:45:49;20.50;39.80
30148;DHT22;16960;49.404;8.248;2023-02-18T09:48:17;20.50;39.90
30148;DHT22;16960;49.404;8.248;2023-02-18T09:50:47;20.60;39.80
30148;DHT22;16960;49.404;8.248;2023-02-18T09:53:18;20.60;39.90
30148;DHT22;16960;49.404;8.248;2023-02-18T09:55:47;20.60;39.80
30148;DHT22;16960;49.404;8.248;2023-02-18T09:58:16;20.50;39.80
30148;DHT22;16960;49.404;8.248;2023-02-18T10:00:46;20.60;39.90
30148;DHT22;16960;49.404;8.248;2023-02-18T10:03:17;20.60;39.90
30148;DHT22;16960;49.404;8.248;2023-02-18T10:05:52;20.60;39.90
30148;DHT22;16960;49.404;8.248;2023-02-18T10:08:24;20.60;39.80
30148;DHT22;16960;49.404;8.248;2023-02-18T10:10:52;20.60;39.90
30148;DHT22;16960;49.404;8.248;2023-02-18T10:13:21;20.60;39.90
30148;DHT22;16960;49.404;8.248;2023-02-18T10:15:49;20.60;39.90
30148;DHT22;16960;49.404;8.248;2023-02-18T10:18:24;20.60;39.90
30148;DHT22;16960;49.404;8.248;2023-02-18T10:20:54;20.60;39.90
30148;DHT22;16960;49.404;8.248;2023-02-18T10:23:24;20.60;39.90
30148;DHT22;16960;49.404;8.248;2023-02-18T10:25:51;20.60;40.00
30148;DHT22;16960;49.404;8.248;2023-02-18T10:28:22;20.60;39.90
30148;DHT22;16960;49.404;8.248;2023-02-18T10:30:56;20.60;40.00
30148;DHT22;16960;49.404;8.248;2023-02-18T10:33:33;20.60;40.00
30148;DHT22;16960;49.404;8.248;2023-02-18T10:36:07;20.60;40.00
30148;DHT22;16960;49.404;8.248;2023-02-18T10:38:48;20.60;40.00
30148;DHT22;16960;49.404;8.248;2023-02-18T10:41:22;20.60;40.00
30148;DHT22;16960;49.404;8.248;2023-02-18T10:43:58;20.60;40.00
30148;DHT22;16960;49.404;8.248;2023-02-18T10:46:33;20.60;40.10
30148;DHT22;16960;49.404;8.248;2023-02-18T10:49:13;20.60;40.00
30148;DHT22;16960;49.404;8.248;2023-02-18T10:51:53;20.50;40.10
30148;DHT22;16960;49.404;8.248;2023-02-18T10:54:25;20.60;40.00
30148;DHT22;16960;49.404;8.248;2023-02-18T10:56:57;20.60;39.90
30148;DHT22;16960;49.404;8.248;2023-02-18T10:59:30;20.60;40.00
30148;DHT22;16960;49.404;8.248;2023-02-18T11:01:59;20.60;39.90
30148;DHT22;16960;49.404;8.248;2023-02-18T11:04:33;20.60;39.90
30148;DHT22;16960;49.404;8.248;2023-02-18T11:07:04;20.60;39.90
30148;DHT22;16960;49.404;8.248;2023-02-18T11:09:39;20.60;40.00
30148;DHT22;16960;49.404;8.248;2023-02-18T11:12:16;20.60;39.90
30148;DHT22;16960;49.404;8.248;2023-02-18T11:14:46;20.60;39.90
30148;DHT22;16960;49.404;8.248;2023-02-18T11:17:19;20.60;39.90
30148;DHT22;16960;49.404;8.248;2023-02-18T11:19:52;20.60;39.90
30148;DHT22;16960;49.404;8.248;2023-02-18T11:22:20;20.60;40.40
30148;DHT22;16960;49.404;8.248;2023-02-18T11:24:53;20.60;39.80
30148;DHT22;16960;49.404;8.248;2023-02-18T11:27:23;20.60;39.80
30148;DHT22;16960;49.404;8.248;2023-02-18T11:29:54;20.60;39.80
30148;DHT22;16960;49.404;8.248;2023-02-18T11:32:25;20.60;39.70
30148;DHT22;16960;49.404;8.248;2023-02-18T11:34:53;20.60;39.70
30148;DHT22;16960;49.404;8.248;2023-02-18T11:37:20;20.60;39.70
30148;DHT22;16960;49.404;8.248;2023-02-18T11:39:52;20.60;39.60
30148;DHT22;16960;49.404;8.248;2023-02-18T11:42:21;20.60;39.50
30148;DHT22;16960;49.404;8.248;2023-02-18T11:44:51;20.60;39.50
30148;DHT22;16960;49.404;8.248;2023-02-18T11:47:24;20.60;39.40
30148;DHT22;16960;49.404;8.248;2023-02-18T11:50:14;20.60;39.40
30148;DHT22;16960;49.404;8.248;2023-02-18T11:52:43;20.50;39.30
30148;DHT22;16960;49.404;8.248;2023-02-18T11:55:16;20.60;39.30
30148;DHT22;16960;49.404;8.248;2023-02-18T11:57:47;20.60;39.30
30148;DHT22;16960;49.404;8.248;2023-02-18T12:00:20;20.60;39.30
30148;DHT22;16960;49.404;8.248;2023-02-18T12:02:48;20.60;39.40
30148;DHT22;16960;49.404;8.248;2023-02-18T12:05:20;20.60;39.40
30148;DHT22;16960;49.404;8.248;2023-02-18T12:07:49;20.60;39.30
30148;DHT22;16960;49.404;8.248;2023-02-18T12:10:22;20.70;39.30
30148;DHT22;16960;49.404;8.248;2023-02-18T12:12:55;20.60;39.30
30148;DHT22;16960;49.404;8.248;2023-02-18T12:15:32;20.70;39.20
30148;DHT22;16960;49.404;8.248;2023-02-18T12:18:37;20.70;39.20
30148;DHT22;16960;49.404;8.248;2023-02-18T12:21:24;20.70;39.20
30148;DHT22;16960;49.404;8.248;2023-02-18T12:23:59;20.80;39.20
30148;DHT22;16960;49.404;8.248;2023-02-18T12:26:37;20.80;39.20
30148;DHT22;16960;49.404;8.248;2023-02-18T12:29:24;20.70;39.10
30148;DHT22;16960;49.404;8.248;2023-02-18T12:32:08;20.80;39.10
30148;DHT22;16960;49.404;8.248;2023-02-18T12:34:54;20.80;39.10
30148;DHT22;16960;49.404;8.248;2023-02-18T12:37:54;20.80;39.10
30148;DHT22;16960;49.404;8.248;2023-02-18T12:43:31;20.90;39.10
30148;DHT22;16960;49.404;8.248;2023-02-18T12:46:26;21.00;39.00
30148;DHT22;16960;49.404;8.248;2023-02-18T12:49:14;21.00;39.00
30148;DHT22;16960;49.404;8.248;2023-02-18T12:52:01;21.10;39.00
30148;DHT22;16960;49.404;8.248;2023-02-18T12:54:49;21.20;39.00
30148;DHT22;16960;49.404;8.248;2023-02-18T12:57:35;21.20;38.90
30148;DHT22;16960;49.404;8.248;2023-02-18T13:06:24;21.30;38.70
30148;DHT22;16960;49.404;8.248;2023-02-18T13:09:02;21.30;38.70
30148;DHT22;16960;49.404;8.248;2023-02-18T13:11:38;21.30;38.70
30148;DHT22;16960;49.404;8.248;2023-02-18T13:14:12;21.30;38.60
30148;DHT22;16960;49.404;8.248;2023-02-18T13:16:44;21.30;38.60
30148;DHT22;16960;49.404;8.248;2023-02-18T13:19:18;21.30;38.60
30148;DHT22;16960;49.404;8.248;2023-02-18T13:21:47;21.40;38.60
30148;DHT22;16960;49.404;8.248;2023-02-18T13:24:23;21.40;38.70
30148;DHT22;16960;49.404;8.248;2023-02-18T13:26:55;21.40;38.70
30148;DHT22;16960;49.404;8.248;2023-02-18T13:29:28;21.50;38.70
30148;DHT22;16960;49.404;8.248;2023-02-18T13:32:05;21.50;38.60
30148;DHT22;16960;49.404;8.248;2023-02-18T13:34:38;21.60;38.60
30148;DHT22;16960;49.404;8.248;2023-02-18T13:37:14;21.70;38.60
30148;DHT22;16960;49.404;8.248;2023-02-18T13:39:48;21.70;38.50
30148;DHT22;16960;49.404;8.248;2023-02-18T13:42:32;21.70;38.40
30148;DHT22;16960;49.404;8.248;2023-02-18T13:45:05;21.70;38.30
30148;DHT22;16960;49.404;8.248;2023-02-18T13:47:38;21.80;38.20
30148;DHT22;16960;49.404;8.248;2023-02-18T13:50:39;21.80;38.10
30148;DHT22;16960;49.404;8.248;2023-02-18T13:53:29;21.90;38.20
30148;DHT22;16960;49.404;8.248;2023-02-18T13:56:03;21.90;38.10
30148;DHT22;16960;49.404;8.248;2023-02-18T13:58:44;21.90;38.00
30148;DHT22;16960;49.404;8.248;2023-02-18T14:01:21;21.90;38.00
30148;DHT22;16960;49.404;8.248;2023-02-18T14:03:56;22.00;38.00
30148;DHT22;16960;49.404;8.248;2023-02-18T14:06:26;22.00;37.90
30148;DHT22;16960;49.404;8.248;2023-02-18T14:09:04;22.00;37.90
30148;DHT22;16960;49.404;8.248;2023-02-18T14:11:54;22.10;37.90
30148;DHT22;16960;49.404;8.248;2023-02-18T14:14:43;22.10;37.90
30148;DHT22;16960;49.404;8.248;2023-02-18T14:17:33;22.10;37.80
30148;DHT22;16960;49.404;8.248;2023-02-18T14:26:24;22.20;37.60
30148;DHT22;16960;49.404;8.248;2023-02-18T14:28:55;22.20;37.60
30148;DHT22;16960;49.404;8.248;2023-02-18T14:31:39;22.20;37.50
30148;DHT22;16960;49.404;8.248;2023-02-18T14:40:39;22.30;37.50
30148;DHT22;16960;49.404;8.248;2023-02-18T14:43:22;22.30;37.40
30148;DHT22;16960;49.404;8.248;2023-02-18T14:46:04;22.40;37.30
30148;DHT22;16960;49.404;8.248;2023-02-18T14:48:50;22.40;37.30
30148;DHT22;16960;49.404;8.248;2023-02-18T14:51:20;22.40;37.30
30148;DHT22;16960;49.404;8.248;2023-02-18T14:53:48;22.40;37.40
30148;DHT22;16960;49.404;8.248;2023-02-18T14:56:17;22.40;37.50
30148;DHT22;16960;49.404;8.248;2023-02-18T14:58:48;22.40;37.40
30148;DHT22;16960;49.404;8.248;2023-02-18T15:01:19;22.30;37.50
30148;DHT22;16960;49.404;8.248;2023-02-18T15:03:47;22.30;38.10
30148;DHT22;16960;49.404;8.248;2023-02-18T15:06:22;22.30;37.60
30148;DHT22;16960;49.404;8.248;2023-02-18T15:08:50;22.30;37.80
30148;DHT22;16960;49.404;8.248;2023-02-18T15:11:18;22.40;37.80
30148;DHT22;16960;49.404;8.248;2023-02-18T15:13:48;22.40;37.80
30148;DHT22;16960;49.404;8.248;2023-02-18T15:16:19;22.40;37.80
30148;DHT22;16960;49.404;8.248;2023-02-18T15:18:52;22.40;37.80
30148;DHT22;16960;49.404;8.248;2023-02-18T15:21:23;22.40;37.80
30148;DHT22;16960;49.404;8.248;2023-02-18T15:23:51;22.40;37.70
30148;DHT22;16960;49.404;8.248;2023-02-18T15:26:18;22.40;37.70
30148;DHT22;16960;49.404;8.248;2023-02-18T15:28:55;22.50;37.70
30148;DHT22;16960;49.404;8.248;2023-02-18T15:31:28;22.50;37.80
30148;DHT22;16960;49.404;8.248;2023-02-18T15:33:56;22.50;37.80
30148;DHT22;16960;49.404;8.248;2023-02-18T15:36:25;22.50;37.90
30148;DHT22;16960;49.404;8.248;2023-02-18T15:38:52;22.50;37.80
30148;DHT22;16960;49.404;8.248;2023-02-18T15:41:20;22.50;37.70
30148;DHT22;16960;49.404;8.248;2023-02-18T15:43:55;22.50;37.70
30148;DHT22;16960;49.404;8.248;2023-02-18T15:46:26;22.50;37.60
30148;DHT22;16960;49.404;8.248;2023-02-18T15:48:54;22.60;37.60
30148;DHT22;16960;49.404;8.248;2023-02-18T15:51:25;22.50;37.70
30148;DHT22;16960;49.404;8.248;2023-02-18T15:53:55;22.50;37.70
30148;DHT22;16960;49.404;8.248;2023-02-18T15:56:29;22.50;37.60
30148;DHT22;16960;49.404;8.248;2023-02-18T15:59:09;22.50;37.60
30148;DHT22;16960;49.404;8.248;2023-02-18T16:01:36;22.50;37.60
30148;DHT22;16960;49.404;8.248;2023-02-18T16:04:05;22.50;37.60
30148;DHT22;16960;49.404;8.248;2023-02-18T16:06:37;22.50;38.10
30148;DHT22;16960;49.404;8.248;2023-02-18T16:09:12;22.50;37.50
30148;DHT22;16960;49.404;8.248;2023-02-18T16:11:42;22.50;37.50
30148;DHT22;16960;49.404;8.248;2023-02-18T16:14:23;22.50;37.50
30148;DHT22;16960;49.404;8.248;2023-02-18T16:17:12;22.50;37.40
30148;DHT22;16960;49.404;8.248;2023-02-18T16:19:47;22.50;37.40